Time;durP1;ratioP1;P1;durP2;ratioP2;P2;SDS_P1;SDS_P2;PMS_P1;PMS_P2;Temp;Humidity;BMP_temperature;BMP_pressure;BME280_temperature;BME280_humidity;BME280_pressure;Samples;Min_cycle;Max_cycle;Signal;HPM_P1;HPM_P2
2022/04/23 00:01:36;;;;;;;;;;;9.90;99.90;;;;;;5153199;27;19956;-75
2022/04/23 00:04:01;;;;;;;;;;;9.80;99.90;;;;;;5153516;27;19911;-75
2022/04/23 00:06:27;;;;;;;;;;;9.80;99.90;;;;;;5153341;27;20006;-75
2022/04/23 00:08:52;;;;;;;;;;;9.80;99.90;;;;;;5153668;27;20271;-75
2022/04/23 00:11:18;;;;;;;;;;;9.70;99.90;;;;;;5153417;27;20313;-75
2022/04/23 00:13:44;;;;;;;;;;;9.70;99.90;;;;;;5153507;27;19914;-75
2022/04/23 00:16:10;;;;;;;;;;;9.60;99.90;;;;;;5134811;27;19911;-75
2022/04/23 00:18:36;;;;;;;;;;;9.60;99.90;;;;;;5155154;27;19907;-75
2022/04/23 00:21:03;;;;;;;;;;;9.60;99.90;;;;;;5157510;27;19914;-75
2022/04/23 00:23:31;;;;;;;;;;;9.60;99.90;;;;;;5156351;27;19943;-75
2022/04/23 00:25:58;;;;;;;;;;;9.50;99.90;;;;;;5156682;27;19915;-75
2022/04/23 00:28:24;;;;;;;;;;;9.50;99.90;;;;;;5156755;27;19907;-75
2022/04/23 00:30:52;;;;;;;;;;;9.50;99.90;;;;;;5157376;27;19907;-75
2022/04/23 00:33:18;;;;;;;;;;;9.40;99.90;;;;;;5156054;27;19967;-75
2022/04/23 00:35:44;;;;;;;;;;;9.50;99.90;;;;;;5157193;27;19907;-75
2022/04/23 00:38:09;;;;;;;;;;;9.40;99.90;;;;;;5157285;27;20567;-75
2022/04/23 00:40:35;;;;;;;;;;;9.30;99.90;;;;;;5156426;27;20355;-75
2022/04/23 00:43:05;;;;;;;;;;;9.40;99.90;;;;;;5156663;27;19935;-75
2022/04/23 00:45:31;;;;;;;;;;;9.40;99.90;;;;;;5155881;27;20442;-75
2022/04/23 00:47:57;;;;;;;;;;;9.30;99.90;;;;;;5156524;27;19990;-75
2022/04/23 00:50:22;;;;;;;;;;;9.30;99.90;;;;;;5137783;27;19955;-75
2022/04/23 00:52:53;;;;;;;;;;;9.20;99.90;;;;;;5156425;27;19907;-75
2022/04/23 00:55:19;;;;;;;;;;;9.30;99.90;;;;;;5155512;27;19926;-74
2022/04/23 00:57:45;;;;;;;;;;;9.20;99.90;;;;;;5157371;27;19914;-74
2022/04/23 01:00:12;;;;;;;;;;;9.20;99.90;;;;;;5157185;27;19998;-74
2022/04/23 01:02:38;;;;;;;;;;;9.10;99.90;;;;;;5156549;27;19926;-74
2022/04/23 01:05:08;;;;;;;;;;;9.10;99.90;;;;;;5157141;27;19910;-76
2022/04/23 01:07:36;;;;;;;;;;;9.00;99.90;;;;;;5156335;27;19907;-74
2022/04/23 01:10:02;;;;;;;;;;;9.00;99.90;;;;;;5157061;27;19911;-74
2022/04/23 01:12:28;;;;;;;;;;;9.00;99.90;;;;;;5156527;27;19975;-74
2022/04/23 01:14:57;;;;;;;;;;;9.00;99.90;;;;;;5156923;27;20347;-74
2022/04/23 01:17:22;;;;;;;;;;;8.90;99.90;;;;;;5156357;27;19967;-74
2022/04/23 01:19:48;;;;;;;;;;;9.00;99.90;;;;;;5138271;27;19911;-74
2022/04/23 01:22:15;;;;;;;;;;;8.90;99.90;;;;;;5156596;27;19915;-74
2022/04/23 01:24:41;;;;;;;;;;;8.90;99.90;;;;;;5155883;27;20009;-74
2022/04/23 01:27:07;;;;;;;;;;;8.90;99.90;;;;;;5156455;27;19907;-74
2022/04/23 01:29:34;;;;;;;;;;;8.80;99.90;;;;;;5156315;27;20015;-73
2022/04/23 01:32:04;;;;;;;;;;;8.70;99.90;;;;;;5159834;27;19907;-73
2022/04/23 01:34:29;;;;;;;;;;;8.70;99.90;;;;;;5156570;27;20327;-74
2022/04/23 01:36:55;;;;;;;;;;;8.70;99.90;;;;;;5157095;27;19994;-74
2022/04/23 01:39:20;;;;;;;;;;;8.60;99.90;;;;;;5156110;27;19934;-74
2022/04/23 01:41:47;;;;;;;;;;;8.60;99.90;;;;;;5156324;27;20002;-74
2022/04/23 01:44:13;;;;;;;;;;;8.60;99.90;;;;;;5156080;27;20275;-74
2022/04/23 01:46:39;;;;;;;;;;;8.70;99.90;;;;;;5155862;27;20025;-74
2022/04/23 01:49:04;;;;;;;;;;;8.70;99.90;;;;;;5137425;27;19907;-74
2022/04/23 01:51:30;;;;;;;;;;;8.60;99.90;;;;;;5155240;27;19907;-74
2022/04/23 01:53:55;;;;;;;;;;;8.60;99.90;;;;;;5155624;27;19907;-74
2022/04/23 01:56:21;;;;;;;;;;;8.60;99.90;;;;;;5155788;27;20380;-75
2022/04/23 01:58:46;;;;;;;;;;;8.60;99.90;;;;;;5155979;27;19945;-74
2022/04/23 02:01:12;;;;;;;;;;;8.60;99.90;;;;;;5155798;27;19965;-74
2022/04/23 02:03:38;;;;;;;;;;;8.60;99.90;;;;;;5155428;27;20340;-74
2022/04/23 02:06:04;;;;;;;;;;;8.60;99.90;;;;;;5155964;27;19914;-74
2022/04/23 02:08:30;;;;;;;;;;;8.60;99.90;;;;;;5155162;27;19907;-74
2022/04/23 02:10:55;;;;;;;;;;;8.60;99.90;;;;;;5155922;27;20252;-74
2022/04/23 02:13:21;;;;;;;;;;;8.60;99.90;;;;;;5155368;27;19918;-74
2022/04/23 02:15:47;;;;;;;;;;;8.60;99.90;;;;;;5155100;27;19950;-74
2022/04/23 02:18:14;;;;;;;;;;;8.50;99.90;;;;;;5155274;27;19908;-74
2022/04/23 02:20:40;;;;;;;;;;;8.50;99.90;;;;;;5155058;27;20386;-74
2022/04/23 02:23:06;;;;;;;;;;;8.50;99.90;;;;;;5155158;27;19919;-74
2022/04/23 02:25:35;;;;;;;;;;;8.60;99.90;;;;;;5154537;27;20386;-74
2022/04/23 02:28:00;;;;;;;;;;;8.60;99.90;;;;;;5154981;27;19950;-75
2022/04/23 02:30:26;;;;;;;;;;;8.60;99.90;;;;;;5154881;27;20424;-74
2022/04/23 02:32:52;;;;;;;;;;;8.50;99.90;;;;;;5155342;27;20397;-74
2022/04/23 02:35:18;;;;;;;;;;;8.50;99.90;;;;;;5155260;27;19959;-75
2022/04/23 02:37:48;;;;;;;;;;;8.50;99.90;;;;;;5154876;27;19907;-74
2022/04/23 02:40:15;;;;;;;;;;;8.50;99.90;;;;;;5155500;27;19907;-74
2022/04/23 02:42:41;;;;;;;;;;;8.50;99.90;;;;;;5154666;27;19919;-74
2022/04/23 02:45:07;;;;;;;;;;;8.50;99.90;;;;;;5155188;27;19911;-74
2022/04/23 02:47:43;;;;;;;;;;;8.60;99.90;;;;;;5154210;27;19907;-74
2022/04/23 02:50:09;;;;;;;;;;;8.60;99.90;;;;;;5155163;27;19907;-74
2022/04/23 02:52:36;;;;;;;;;;;8.60;99.90;;;;;;5154430;27;19907;-74
2022/04/23 02:55:01;;;;;;;;;;;8.50;99.90;;;;;;5154576;27;19911;-74
2022/04/23 02:57:27;;;;;;;;;;;8.60;99.90;;;;;;5154452;27;19918;-74
2022/04/23 02:59:52;;;;;;;;;;;8.60;99.90;;;;;;5154787;27;19914;-75
2022/04/23 03:02:18;;;;;;;;;;;8.60;99.90;;;;;;5154606;27;20237;-74
2022/04/23 03:04:43;;;;;;;;;;;8.60;99.90;;;;;;5154099;27;19914;-74
2022/04/23 03:07:10;;;;;;;;;;;8.50;99.90;;;;;;5154805;27;19913;-75
2022/04/23 03:09:36;;;;;;;;;;;8.60;99.90;;;;;;5154315;27;19907;-74
2022/04/23 03:12:02;;;;;;;;;;;8.50;99.90;;;;;;5154400;27;20367;-74
2022/04/23 03:14:27;;;;;;;;;;;8.50;99.90;;;;;;5154452;27;19907;-75
2022/04/23 03:16:53;;;;;;;;;;;8.50;99.90;;;;;;5154691;27;20279;-75
2022/04/23 03:19:18;;;;;;;;;;;8.50;99.90;;;;;;5136308;27;19911;-74
2022/04/23 03:21:44;;;;;;;;;;;8.60;99.90;;;;;;5153979;27;19915;-74
2022/04/23 03:24:09;;;;;;;;;;;8.70;99.90;;;;;;5154739;27;20275;-74
2022/04/23 03:26:35;;;;;;;;;;;8.80;99.90;;;;;;5153781;27;19965;-74
2022/04/23 03:29:02;;;;;;;;;;;8.80;99.90;;;;;;5154602;27;19977;-75
2022/04/23 03:31:28;;;;;;;;;;;8.90;99.90;;;;;;5135820;27;19907;-74
2022/04/23 03:33:54;;;;;;;;;;;8.90;99.90;;;;;;5154642;27;19994;-75
2022/04/23 03:36:19;;;;;;;;;;;8.90;99.90;;;;;;5154505;27;19933;-74
2022/04/23 03:38:45;;;;;;;;;;;8.90;99.90;;;;;;5154306;27;19908;-75
2022/04/23 03:41:10;;;;;;;;;;;8.90;99.90;;;;;;5154610;27;19907;-74
2022/04/23 03:43:36;;;;;;;;;;;8.90;99.90;;;;;;5153738;27;20287;-74
2022/04/23 03:46:01;;;;;;;;;;;8.80;99.90;;;;;;5154513;27;19935;-74
2022/04/23 03:48:27;;;;;;;;;;;8.80;99.90;;;;;;5154361;27;19959;-74
2022/04/23 03:50:53;;;;;;;;;;;8.80;99.90;;;;;;5153928;27;20035;-74
2022/04/23 03:53:18;;;;;;;;;;;8.80;99.90;;;;;;5156556;27;19911;-74
2022/04/23 03:55:44;;;;;;;;;;;8.80;99.90;;;;;;5157353;27;19951;-74
2022/04/23 03:58:09;;;;;;;;;;;8.80;99.90;;;;;;5158438;27;19911;-74
2022/04/23 04:00:35;;;;;;;;;;;8.80;99.90;;;;;;5157992;27;20003;-74
2022/04/23 04:03:00;;;;;;;;;;;8.70;99.90;;;;;;5158274;27;19968;-74
2022/04/23 04:05:28;;;;;;;;;;;8.70;99.90;;;;;;5158342;27;19911;-74
2022/04/23 04:07:53;;;;;;;;;;;8.70;99.90;;;;;;5157497;27;20383;-74
2022/04/23 04:10:20;;;;;;;;;;;8.80;99.90;;;;;;5158463;27;19908;-74
2022/04/23 04:12:46;;;;;;;;;;;8.70;99.90;;;;;;5157631;27;19908;-74
2022/04/23 04:15:15;;;;;;;;;;;8.70;99.90;;;;;;5157934;27;19909;-75
2022/04/23 04:17:41;;;;;;;;;;;8.70;99.90;;;;;;5157352;27;19907;-74
2022/04/23 04:20:08;;;;;;;;;;;8.70;99.90;;;;;;5157488;27;19908;-74
2022/04/23 04:22:34;;;;;;;;;;;8.70;99.90;;;;;;5156977;27;19916;-75
2022/04/23 04:25:00;;;;;;;;;;;8.80;99.90;;;;;;5157382;27;19907;-74
2022/04/23 04:27:26;;;;;;;;;;;8.80;99.90;;;;;;5157163;27;20348;-75
2022/04/23 04:29:51;;;;;;;;;;;8.80;99.90;;;;;;5157288;27;19911;-75
2022/04/23 04:32:17;;;;;;;;;;;8.80;99.90;;;;;;5138827;27;19930;-75
2022/04/23 04:34:43;;;;;;;;;;;8.90;99.90;;;;;;5138208;27;19915;-74
2022/04/23 04:37:09;;;;;;;;;;;8.90;99.90;;;;;;5157427;27;19958;-75
2022/04/23 04:39:35;;;;;;;;;;;8.90;99.90;;;;;;5157138;27;19914;-74
2022/04/23 04:42:01;;;;;;;;;;;8.90;99.90;;;;;;5157627;27;20464;-74
2022/04/23 04:44:27;;;;;;;;;;;8.80;99.90;;;;;;5157678;27;19907;-74
2022/04/23 04:46:52;;;;;;;;;;;8.80;99.90;;;;;;5156973;27;19915;-74
2022/04/23 04:49:18;;;;;;;;;;;8.80;99.90;;;;;;5157328;27;20334;-74
2022/04/23 04:51:44;;;;;;;;;;;8.90;99.90;;;;;;5157005;27;19915;-74
2022/04/23 04:54:10;;;;;;;;;;;8.90;99.90;;;;;;5157757;27;19914;-74
2022/04/23 04:56:35;;;;;;;;;;;8.80;99.90;;;;;;5156608;27;19926;-74
2022/04/23 04:59:01;;;;;;;;;;;8.90;99.90;;;;;;5157266;27;20261;-74
2022/04/23 05:01:27;;;;;;;;;;;8.90;99.90;;;;;;5157557;27;20264;-74
2022/04/23 05:03:54;;;;;;;;;;;8.90;99.90;;;;;;5155896;27;19908;-74
2022/04/23 05:06:19;;;;;;;;;;;8.90;99.90;;;;;;5156732;27;20027;-74
2022/04/23 05:08:45;;;;;;;;;;;8.90;99.90;;;;;;5156672;27;20391;-74
2022/04/23 05:11:11;;;;;;;;;;;8.90;99.90;;;;;;5157035;27;19918;-74
2022/04/23 05:13:40;;;;;;;;;;;9.00;99.90;;;;;;5156551;27;19907;-74
2022/04/23 05:16:06;;;;;;;;;;;8.90;99.90;;;;;;5157392;27;19908;-74
2022/04/23 05:18:32;;;;;;;;;;;9.00;99.90;;;;;;5156925;27;19911;-74
2022/04/23 05:20:58;;;;;;;;;;;9.00;99.90;;;;;;5156128;27;19907;-74
2022/04/23 05:23:23;;;;;;;;;;;9.00;99.90;;;;;;5156881;27;19922;-74
2022/04/23 05:25:49;;;;;;;;;;;9.00;99.90;;;;;;5156134;27;19907;-75
2022/04/23 05:28:14;;;;;;;;;;;9.10;99.90;;;;;;5156535;27;19966;-74
2022/04/23 05:30:40;;;;;;;;;;;9.10;99.90;;;;;;5137686;27;20367;-74
2022/04/23 05:33:06;;;;;;;;;;;9.10;99.90;;;;;;5156621;27;19930;-75
2022/04/23 05:35:32;;;;;;;;;;;9.10;99.90;;;;;;5156873;27;19911;-75
2022/04/23 05:37:57;;;;;;;;;;;9.10;99.90;;;;;;5155872;27;19941;-75
2022/04/23 05:40:23;;;;;;;;;;;9.10;99.90;;;;;;5156560;27;19914;-74
2022/04/23 05:42:48;;;;;;;;;;;9.10;99.90;;;;;;5155764;27;20059;-74
2022/04/23 05:45:14;;;;;;;;;;;9.10;99.90;;;;;;5156213;27;19907;-74
2022/04/23 05:47:41;;;;;;;;;;;9.10;99.90;;;;;;5155587;27;19914;-74
2022/04/23 05:50:07;;;;;;;;;;;9.20;99.90;;;;;;5156201;27;19914;-75
2022/04/23 05:52:32;;;;;;;;;;;9.30;99.90;;;;;;5155995;27;19967;-74
2022/04/23 05:54:58;;;;;;;;;;;9.30;99.90;;;;;;5155285;27;20442;-74
2022/04/23 05:57:24;;;;;;;;;;;9.50;99.90;;;;;;5155978;27;19908;-75
2022/04/23 05:59:49;;;;;;;;;;;9.50;99.90;;;;;;5137060;27;19953;-74
2022/04/23 06:02:15;;;;;;;;;;;9.60;99.90;;;;;;5156002;27;19915;-75
2022/04/23 06:04:40;;;;;;;;;;;9.70;99.90;;;;;;5155114;27;19907;-76
2022/04/23 06:07:06;;;;;;;;;;;9.80;99.90;;;;;;5143719;27;19911;-76
2022/04/23 06:09:31;;;;;;;;;;;9.80;99.90;;;;;;5145852;27;19922;-76
2022/04/23 06:11:57;;;;;;;;;;;9.90;99.90;;;;;;5134668;27;19915;-76
2022/04/23 06:14:23;;;;;;;;;;;9.70;99.90;;;;;;5122663;27;20328;-76
2022/04/23 06:16:48;;;;;;;;;;;9.70;99.90;;;;;;5144215;27;20248;-76
2022/04/23 06:19:14;;;;;;;;;;;9.60;99.90;;;;;;5140077;27;19999;-76
2022/04/23 06:21:39;;;;;;;;;;;9.60;99.90;;;;;;5134740;27;19907;-76
2022/04/23 06:24:05;;;;;;;;;;;9.50;99.90;;;;;;5134292;27;20279;-75
2022/04/23 06:26:31;;;;;;;;;;;9.50;99.90;;;;;;5116454;27;19908;-76
2022/04/23 06:28:58;;;;;;;;;;;9.40;99.90;;;;;;5115746;27;19907;-75
2022/04/23 06:31:23;;;;;;;;;;;9.50;99.90;;;;;;5134660;27;19908;-75
2022/04/23 06:33:49;;;;;;;;;;;9.50;99.90;;;;;;5134222;27;19952;-75
2022/04/23 06:36:14;;;;;;;;;;;9.50;99.90;;;;;;5134745;27;20264;-75
2022/04/23 06:38:40;;;;;;;;;;;9.50;99.90;;;;;;5116269;27;19907;-75
2022/04/23 06:41:05;;;;;;;;;;;9.60;99.90;;;;;;5134134;27;19908;-75
2022/04/23 06:43:31;;;;;;;;;;;9.70;99.90;;;;;;5134466;27;19926;-75
2022/04/23 06:45:57;;;;;;;;;;;9.70;99.90;;;;;;5133979;27;19911;-75
2022/04/23 06:48:22;;;;;;;;;;;9.70;99.90;;;;;;5134629;27;20272;-75
2022/04/23 06:50:48;;;;;;;;;;;9.70;99.90;;;;;;5133783;27;19907;-75
2022/04/23 06:53:14;;;;;;;;;;;9.80;99.90;;;;;;5134512;27;20284;-75
2022/04/23 06:55:39;;;;;;;;;;;9.80;99.90;;;;;;5133946;27;19926;-75
2022/04/23 06:58:05;;;;;;;;;;;9.80;99.90;;;;;;5133579;27;19976;-76
2022/04/23 07:00:30;;;;;;;;;;;9.80;99.90;;;;;;5133908;27;19913;-75
2022/04/23 07:02:56;;;;;;;;;;;9.80;99.90;;;;;;5133274;27;20378;-75
2022/04/23 07:05:22;;;;;;;;;;;9.80;99.90;;;;;;5133847;27;19914;-75
2022/04/23 07:07:55;;;;;;;;;;;9.80;99.90;;;;;;5133583;27;19954;-76
2022/04/23 07:10:21;;;;;;;;;;;9.80;99.90;;;;;;5134053;27;19908;-76
2022/04/23 07:12:46;;;;;;;;;;;9.90;99.90;;;;;;5133382;27;20404;-75
2022/04/23 07:15:13;;;;;;;;;;;9.90;99.90;;;;;;5133985;27;19914;-76
2022/04/23 07:17:38;;;;;;;;;;;10.00;99.90;;;;;;5133187;27;20237;-75
2022/04/23 07:20:04;;;;;;;;;;;10.10;99.90;;;;;;5133132;27;19968;-75
2022/04/23 07:22:29;;;;;;;;;;;10.10;99.90;;;;;;5133760;27;20416;-74
2022/04/23 07:24:55;;;;;;;;;;;10.10;99.90;;;;;;5133355;28;19938;-74
2022/04/23 07:27:21;;;;;;;;;;;10.20;99.90;;;;;;5133196;27;19963;-75
2022/04/23 07:29:47;;;;;;;;;;;10.20;99.90;;;;;;5132983;28;19915;-75
2022/04/23 07:32:12;;;;;;;;;;;10.20;99.90;;;;;;5133753;28;20245;-74
2022/04/23 07:37:28;;;;;;;;;;;10.30;99.90;;;;;;5133561;28;19915;-75
2022/04/23 07:40:10;;;;;;;;;;;10.30;99.90;;;;;;5133053;28;19907;-75
2022/04/23 07:42:36;;;;;;;;;;;10.30;99.90;;;;;;5133695;28;19966;-75
2022/04/23 07:45:01;;;;;;;;;;;10.30;99.90;;;;;;5132774;28;19911;-75
2022/04/23 07:47:28;;;;;;;;;;;10.30;99.90;;;;;;5133310;28;19908;-75
2022/04/23 07:49:53;;;;;;;;;;;10.30;99.90;;;;;;5132608;28;19911;-75
2022/04/23 07:52:19;;;;;;;;;;;10.30;99.90;;;;;;5133697;28;19915;-75
2022/04/23 07:54:45;;;;;;;;;;;10.30;99.90;;;;;;5133457;28;19932;-74
2022/04/23 07:57:11;;;;;;;;;;;10.40;99.90;;;;;;5132720;28;19919;-75
2022/04/23 07:59:43;;;;;;;;;;;10.40;99.90;;;;;;5133157;28;19908;-75
2022/04/23 08:02:09;;;;;;;;;;;10.40;99.90;;;;;;5132552;28;19915;-75
2022/04/23 08:04:35;;;;;;;;;;;10.40;99.90;;;;;;5133030;28;20398;-75
2022/04/23 08:07:01;;;;;;;;;;;10.50;99.90;;;;;;5132650;28;19918;-75
2022/04/23 08:09:27;;;;;;;;;;;10.50;99.90;;;;;;5133236;28;20009;-75
2022/04/23 08:11:52;;;;;;;;;;;10.60;99.90;;;;;;5132625;28;19908;-75
2022/04/23 08:14:18;;;;;;;;;;;10.70;99.90;;;;;;5133502;28;19915;-75
2022/04/23 08:16:45;;;;;;;;;;;10.90;99.90;;;;;;5133087;28;19907;-76
2022/04/23 08:19:11;;;;;;;;;;;11.10;99.90;;;;;;5132467;28;20058;-76
2022/04/23 08:21:36;;;;;;;;;;;11.30;99.90;;;;;;5133039;28;19907;-76
2022/04/23 08:24:02;;;;;;;;;;;11.30;99.90;;;;;;5132531;28;19914;-76
2022/04/23 08:26:28;;;;;;;;;;;11.30;99.90;;;;;;5114766;28;19918;-76
2022/04/23 08:31:37;;;;;;;;;;;11.50;99.90;;;;;;5143248;27;19915;-76
2022/04/23 08:34:03;;;;;;;;;;;11.50;99.90;;;;;;5144387;27;19907;-76
2022/04/23 08:36:35;;;;;;;;;;;11.50;99.90;;;;;;5153583;27;19950;-77
2022/04/23 08:39:01;;;;;;;;;;;11.50;99.90;;;;;;5154785;27;19907;-77
2022/04/23 08:41:31;;;;;;;;;;;11.40;99.90;;;;;;5157338;27;20436;-76
2022/04/23 08:44:05;;;;;;;;;;;11.50;99.90;;;;;;5156954;27;19915;-76
2022/04/23 08:46:40;;;;;;;;;;;11.50;99.90;;;;;;5157602;27;19930;-76
2022/04/23 08:49:09;;;;;;;;;;;11.50;99.90;;;;;;5138112;27;19907;-76
2022/04/23 08:51:35;;;;;;;;;;;11.50;99.90;;;;;;5157059;27;20382;-75
2022/04/23 08:54:10;;;;;;;;;;;11.50;99.90;;;;;;5156641;27;19907;-75
2022/04/23 08:56:40;;;;;;;;;;;11.50;99.90;;;;;;5156800;27;20368;-75
2022/04/23 08:59:08;;;;;;;;;;;11.50;99.90;;;;;;5156447;27;19907;-76
2022/04/23 09:01:34;;;;;;;;;;;11.50;99.90;;;;;;5156339;27;19907;-76
2022/04/23 09:04:01;;;;;;;;;;;11.50;99.90;;;;;;5156582;27;20014;-76
2022/04/23 09:06:43;;;;;;;;;;;11.50;99.90;;;;;;5157025;27;19952;-75
2022/04/23 09:09:10;;;;;;;;;;;11.30;99.90;;;;;;5156376;27;19907;-76
2022/04/23 09:11:36;;;;;;;;;;;11.40;99.90;;;;;;5138453;27;19914;-76
2022/04/23 09:14:06;;;;;;;;;;;11.30;99.90;;;;;;5156382;27;19911;-76
2022/04/23 09:25:03;;;;;;;;;;;11.40;99.90;;;;;;5156133;27;19917;-75
2022/04/23 09:27:30;;;;;;;;;;;11.50;99.90;;;;;;5153427;27;20279;-76
2022/04/23 09:29:59;;;;;;;;;;;11.60;99.90;;;;;;5143956;27;19922;-76
2022/04/23 09:32:27;;;;;;;;;;;11.80;99.90;;;;;;5143665;27;19915;-76
2022/04/23 09:35:12;;;;;;;;;;;11.80;99.90;;;;;;5135450;27;19908;-76
2022/04/23 09:40:25;;;;;;;;;;;11.90;99.90;;;;;;5144249;27;20380;-75
2022/04/23 09:42:54;;;;;;;;;;;12.00;99.90;;;;;;5137618;27;19970;-76
2022/04/23 09:45:20;;;;;;;;;;;12.10;99.90;;;;;;5155841;27;19915;-76
2022/04/23 09:47:45;;;;;;;;;;;12.10;99.90;;;;;;5156071;27;19911;-76
2022/04/23 09:50:15;;;;;;;;;;;12.20;99.90;;;;;;5154684;27;20284;-76
2022/04/23 09:52:42;;;;;;;;;;;12.30;99.90;;;;;;5155969;27;19907;-76
2022/04/23 09:55:09;;;;;;;;;;;12.60;99.90;;;;;;5154921;27;19907;-74
2022/04/23 09:57:35;;;;;;;;;;;12.80;99.90;;;;;;5156033;27;20378;-76
2022/04/23 10:00:00;;;;;;;;;;;12.90;99.90;;;;;;5155231;27;19907;-74
2022/04/23 10:02:26;;;;;;;;;;;12.90;99.90;;;;;;5155802;27;19964;-74
2022/04/23 10:04:56;;;;;;;;;;;12.90;99.90;;;;;;5137074;27;20148;-74
2022/04/23 10:07:25;;;;;;;;;;;13.10;99.90;;;;;;5155531;27;19911;-74
2022/04/23 10:09:51;;;;;;;;;;;13.30;99.90;;;;;;5152146;27;19954;-75
2022/04/23 10:12:18;;;;;;;;;;;13.30;99.90;;;;;;5143873;27;19915;-74
2022/04/23 10:14:49;;;;;;;;;;;13.20;99.90;;;;;;5148988;27;19907;-74
2022/04/23 10:17:20;;;;;;;;;;;13.10;99.90;;;;;;5154932;27;19908;-74
2022/04/23 10:19:47;;;;;;;;;;;13.00;99.90;;;;;;5155352;27;19907;-75
2022/04/23 10:22:31;;;;;;;;;;;12.90;99.90;;;;;;5136171;27;20026;-74
2022/04/23 10:25:04;;;;;;;;;;;12.90;99.90;;;;;;5155388;27;19913;-74
2022/04/23 10:27:30;;;;;;;;;;;12.90;99.90;;;;;;5155604;27;20386;-75
2022/04/23 10:29:56;;;;;;;;;;;12.80;99.90;;;;;;5154909;27;19907;-74
2022/04/23 10:32:24;;;;;;;;;;;13.00;99.90;;;;;;5154134;27;19911;-74
2022/04/23 10:34:49;;;;;;;;;;;13.00;99.90;;;;;;5155206;27;19907;-74
2022/04/23 10:37:19;;;;;;;;;;;13.10;99.90;;;;;;5154507;27;20006;-75
2022/04/23 10:40:05;;;;;;;;;;;13.10;99.90;;;;;;5155135;27;19994;-74
2022/04/23 10:42:32;;;;;;;;;;;13.30;99.90;;;;;;5118722;27;20279;-75
2022/04/23 10:45:01;;;;;;;;;;;13.20;99.90;;;;;;5155083;27;19907;-74
2022/04/23 10:47:32;;;;;;;;;;;13.20;99.90;;;;;;5155039;27;19907;-75
2022/04/23 10:50:21;;;;;;;;;;;13.30;99.90;;;;;;5136024;27;19958;-74
2022/04/23 10:52:49;;;;;;;;;;;13.10;99.90;;;;;;5154884;27;19929;-75
2022/04/23 10:55:15;;;;;;;;;;;13.20;99.90;;;;;;5135878;27;19907;-75
2022/04/23 10:57:46;;;;;;;;;;;13.20;99.90;;;;;;5154965;27;19918;-75
2022/04/23 11:00:15;;;;;;;;;;;13.20;99.90;;;;;;5154663;27;19915;-76
2022/04/23 11:02:41;;;;;;;;;;;13.20;99.90;;;;;;5153519;27;19915;-74
2022/04/23 11:14:06;;;;;;;;;;;12.90;99.90;;;;;;5050186;28;19951;-74
2022/04/23 11:16:31;;;;;;;;;;;12.70;99.90;;;;;;5050269;28;19913;-74
2022/04/23 11:18:58;;;;;;;;;;;12.80;99.90;;;;;;5050183;28;19959;-74
2022/04/23 11:21:29;;;;;;;;;;;12.70;99.90;;;;;;5049577;28;19983;-74
2022/04/23 11:23:55;;;;;;;;;;;12.70;99.90;;;;;;5050149;28;19916;-74
2022/04/23 11:26:32;;;;;;;;;;;13.00;99.90;;;;;;5050013;28;19913;-74
2022/04/23 11:28:58;;;;;;;;;;;13.20;99.90;;;;;;5050301;28;20298;-74
2022/04/23 11:31:24;;;;;;;;;;;13.30;99.90;;;;;;5049564;28;20404;-74
2022/04/23 11:33:50;;;;;;;;;;;13.50;99.90;;;;;;5050006;28;20366;-75
2022/04/23 11:36:17;;;;;;;;;;;13.60;99.90;;;;;;5049536;28;19908;-75
2022/04/23 11:38:43;;;;;;;;;;;13.60;99.90;;;;;;5049989;28;19932;-75
2022/04/23 11:41:09;;;;;;;;;;;13.60;99.90;;;;;;5078674;27;20356;-75
2022/04/23 11:43:37;;;;;;;;;;;13.70;99.90;;;;;;5154437;27;19915;-75
2022/04/23 11:46:09;;;;;;;;;;;13.60;99.90;;;;;;5154056;27;19950;-74
2022/04/23 11:48:46;;;;;;;;;;;13.50;99.90;;;;;;5154274;27;20335;-75
2022/04/23 11:51:12;;;;;;;;;;;13.40;99.90;;;;;;5153656;27;19998;-75
2022/04/23 11:53:58;;;;;;;;;;;13.50;99.90;;;;;;5153843;27;19907;-75
2022/04/23 11:56:25;;;;;;;;;;;13.40;99.90;;;;;;5152726;27;20557;-75
2022/04/23 11:58:58;;;;;;;;;;;13.60;99.90;;;;;;5154161;27;20367;-75
2022/04/23 12:01:25;;;;;;;;;;;13.50;99.90;;;;;;5153544;27;19950;-76
2022/04/23 12:03:51;;;;;;;;;;;13.70;99.90;;;;;;5142010;27;19927;-75
2022/04/23 12:06:16;;;;;;;;;;;13.80;99.90;;;;;;5143820;27;19907;-75
2022/04/23 12:08:42;;;;;;;;;;;13.80;99.90;;;;;;5143517;27;19912;-75
2022/04/23 12:11:24;;;;;;;;;;;13.80;99.90;;;;;;5143028;27;19908;-75
2022/04/23 12:13:50;;;;;;;;;;;13.70;99.90;;;;;;5151375;27;19907;-75
2022/04/23 12:16:36;;;;;;;;;;;13.80;99.90;;;;;;5157336;27;19908;-75
2022/04/23 12:19:16;;;;;;;;;;;13.60;99.90;;;;;;5157178;27;20010;-75
2022/04/23 12:21:57;;;;;;;;;;;13.40;99.90;;;;;;5139193;27;19918;-74
2022/04/23 12:24:33;;;;;;;;;;;13.30;99.90;;;;;;5157201;27;19915;-75
2022/04/23 12:27:02;;;;;;;;;;;13.20;99.90;;;;;;5157799;27;19914;-74
2022/04/23 12:40:45;;;;;;;;;;;13.40;99.90;;;;;;5157365;27;19914;-75
2022/04/23 12:43:21;;;;;;;;;;;13.30;99.90;;;;;;5156672;27;19915;-75
2022/04/23 12:45:47;;;;;;;;;;;13.50;99.90;;;;;;5138372;27;20260;-74
2022/04/23 12:48:14;;;;;;;;;;;13.50;99.90;;;;;;5156184;27;19911;-75
2022/04/23 12:50:39;;;;;;;;;;;13.70;99.90;;;;;;5157150;27;19915;-74
2022/04/23 12:53:05;;;;;;;;;;;13.70;99.90;;;;;;5157305;27;19907;-75
2022/04/23 12:55:37;;;;;;;;;;;13.80;99.90;;;;;;5155660;27;19965;-75
2022/04/23 12:58:02;;;;;;;;;;;13.90;99.90;;;;;;5156211;27;19911;-75
2022/04/23 13:00:29;;;;;;;;;;;13.80;99.90;;;;;;5155284;27;20002;-75
2022/04/23 13:02:58;;;;;;;;;;;13.80;99.90;;;;;;5156300;27;20359;-75
2022/04/23 13:05:24;;;;;;;;;;;13.70;99.90;;;;;;5155513;27;19918;-75
2022/04/23 13:10:35;;;;;;;;;;;13.50;99.90;;;;;;5155964;27;19930;-75
2022/04/23 13:13:00;;;;;;;;;;;13.50;99.90;;;;;;5156446;27;19911;-75
2022/04/23 13:15:26;;;;;;;;;;;13.40;99.90;;;;;;5155769;27;19914;-75
2022/04/23 13:17:52;;;;;;;;;;;13.30;99.90;;;;;;5152790;27;19915;-75
2022/04/23 13:20:18;;;;;;;;;;;13.30;99.90;;;;;;5125611;27;19914;-74
2022/04/23 13:22:44;;;;;;;;;;;13.30;99.90;;;;;;5155374;27;19927;-75
2022/04/23 13:25:11;;;;;;;;;;;13.20;99.90;;;;;;5154904;27;20398;-75
2022/04/23 13:27:36;;;;;;;;;;;13.10;99.90;;;;;;5156055;27;19997;-74
2022/04/23 13:30:03;;;;;;;;;;;13.10;99.90;;;;;;5154662;27;19954;-75
2022/04/23 13:32:29;;;;;;;;;;;13.20;99.90;;;;;;5133441;27;20077;-74
2022/04/23 13:34:54;;;;;;;;;;;13.30;99.90;;;;;;5153877;27;20383;-75
2022/04/23 13:37:20;;;;;;;;;;;13.30;99.90;;;;;;5154456;27;20347;-75
2022/04/23 13:39:46;;;;;;;;;;;13.20;99.90;;;;;;5136481;27;20267;-75
2022/04/23 13:42:12;;;;;;;;;;;13.30;99.90;;;;;;5154697;27;19965;-75
2022/04/23 13:44:38;;;;;;;;;;;13.30;99.90;;;;;;5154596;27;19907;-75
2022/04/23 13:47:03;;;;;;;;;;;13.20;99.90;;;;;;5155465;27;19935;-75
2022/04/23 13:49:29;;;;;;;;;;;13.30;99.90;;;;;;5154406;27;19961;-76
2022/04/23 13:51:55;;;;;;;;;;;13.30;99.90;;;;;;5142463;27;19915;-75
2022/04/23 13:54:20;;;;;;;;;;;13.30;99.90;;;;;;5145942;27;19959;-76
2022/04/23 13:56:49;;;;;;;;;;;13.40;99.90;;;;;;5142548;27;19919;-75
2022/04/23 13:59:15;;;;;;;;;;;13.40;99.90;;;;;;5142658;27;19998;-75
2022/04/23 14:01:41;;;;;;;;;;;13.50;99.90;;;;;;5143521;27;20005;-75
2022/04/23 14:12:19;;;;;;;;;;;13.50;99.90;;;;;;5142845;27;20076;-75
2022/04/23 14:14:45;;;;;;;;;;;13.40;99.90;;;;;;5144130;27;20005;-75
2022/04/23 14:17:10;;;;;;;;;;;13.50;99.90;;;;;;5142258;27;19967;-75
2022/04/23 14:19:36;;;;;;;;;;;13.50;99.90;;;;;;5142425;27;20001;-75
2022/04/23 14:22:03;;;;;;;;;;;13.50;99.90;;;;;;5137013;27;20344;-75
2022/04/23 14:24:28;;;;;;;;;;;13.50;99.90;;;;;;5142276;27;19918;-76
2022/04/23 14:26:54;;;;;;;;;;;13.50;99.90;;;;;;5140930;27;20006;-75
2022/04/23 14:29:20;;;;;;;;;;;13.40;99.90;;;;;;5143696;27;19915;-75
2022/04/23 14:31:45;;;;;;;;;;;13.50;99.90;;;;;;5142339;27;19907;-75
2022/04/23 14:34:12;;;;;;;;;;;13.50;99.90;;;;;;5135337;27;20014;-75
2022/04/23 14:36:38;;;;;;;;;;;13.40;99.90;;;;;;5133336;27;19918;-75
2022/04/23 14:39:05;;;;;;;;;;;13.40;99.90;;;;;;5132321;27;19990;-75
2022/04/23 14:41:31;;;;;;;;;;;13.40;99.90;;;;;;5132272;27;20059;-76
2022/04/23 14:43:56;;;;;;;;;;;13.50;99.90;;;;;;5133440;27;20374;-75
2022/04/23 14:46:22;;;;;;;;;;;13.50;99.90;;;;;;5132553;27;19908;-75
2022/04/23 14:48:48;;;;;;;;;;;13.50;99.90;;;;;;5133241;27;19965;-76
2022/04/23 14:53:57;;;;;;;;;;;13.50;99.90;;;;;;5152936;27;19955;-76
2022/04/23 14:56:23;;;;;;;;;;;13.50;99.90;;;;;;5153303;27;20314;-75
2022/04/23 14:58:49;;;;;;;;;;;13.50;99.90;;;;;;5135348;27;19907;-75
2022/04/23 15:01:14;;;;;;;;;;;13.50;99.90;;;;;;5152946;27;19911;-75
2022/04/23 15:03:43;;;;;;;;;;;13.50;99.90;;;;;;5153155;27;19931;-75
2022/04/23 15:06:08;;;;;;;;;;;13.40;99.90;;;;;;5153966;27;19911;-75
2022/04/23 15:08:34;;;;;;;;;;;13.40;99.90;;;;;;5152809;27;19951;-76
2022/04/23 15:11:00;;;;;;;;;;;13.40;99.90;;;;;;5153933;27;20391;-75
2022/04/23 15:13:28;;;;;;;;;;;13.50;99.90;;;;;;5153776;27;20371;-75